Time;durP1;ratioP1;P1;durP2;ratioP2;P2;SDS_P1;SDS_P2;PMS_P1;PMS_P2;Temp;Humidity;BMP_temperature;BMP_pressure;BME280_temperature;BME280_humidity;BME280_pressure;Samples;Min_cycle;Max_cycle;Signal;HPM_P1;HPM_P2
2023/01/15 00:01:44;;;;;;;1.13;1.13;;;16.40;68.30;17.40;99200.00;;;;5010543;28;20231;-47
2023/01/15 00:04:10;;;;;;;1.50;1.40;;;16.40;68.20;17.40;99196.00;;;;5010781;28;20192;-46
2023/01/15 00:06:38;;;;;;;1.47;1.20;;;16.40;69.10;17.40;99202.00;;;;5011020;28;20195;-46
2023/01/15 00:09:05;;;;;;;0.93;0.93;;;16.40;68.20;17.40;99198.00;;;;5010792;28;20167;-46
2023/01/15 00:11:30;;;;;;;0.90;0.90;;;16.30;68.10;17.40;99198.00;;;;5010884;28;20163;-46
2023/01/15 00:13:56;;;;;;;1.37;1.27;;;16.30;68.10;17.40;99207.00;;;;5010888;28;20251;-48
2023/01/15 00:16:23;;;;;;;1.00;1.00;;;16.30;68.10;17.40;99210.00;;;;5010743;28;20203;-47
2023/01/15 00:18:56;;;;;;;1.20;1.10;;;16.30;68.10;17.40;99215.00;;;;5011070;28;20927;-46
2023/01/15 00:21:22;;;;;;;1.47;1.10;;;16.30;68.10;17.30;99214.00;;;;5010316;28;20184;-47
2023/01/15 00:29:18;;;;;;;1.00;1.00;;;16.30;68.00;17.30;99244.00;;;;5010227;28;20167;-46
2023/01/15 00:31:50;;;;;;;1.50;1.20;;;16.30;67.90;17.30;99244.00;;;;5009565;28;20177;-46
2023/01/15 00:34:16;;;;;;;0.87;0.80;;;16.30;67.80;17.30;99248.00;;;;5009882;28;20171;-46
2023/01/15 00:36:42;;;;;;;1.30;1.20;;;16.30;67.80;17.30;99250.00;;;;5009731;28;20222;-46
2023/01/15 00:39:07;;;;;;;1.47;1.20;;;16.20;67.70;17.20;99233.00;;;;5009726;28;20175;-46
2023/01/15 00:41:33;;;;;;;0.90;0.90;;;16.20;67.60;17.20;99251.00;;;;5009478;28;20187;-46
2023/01/15 00:43:59;;;;;;;2.20;1.33;;;16.20;67.60;17.00;99254.00;;;;5009468;28;20195;-46
2023/01/15 00:46:25;;;;;;;1.67;1.10;;;16.20;67.60;17.20;99246.00;;;;5009519;28;20667;-46
2023/01/15 00:48:50;;;;;;;1.20;1.10;;;16.20;67.60;17.20;99250.00;;;;5009730;28;20288;-46
2023/01/15 00:51:16;;;;;;;1.10;1.00;;;16.10;67.40;17.20;99251.00;;;;5009308;28;20186;-46
2023/01/15 00:53:42;;;;;;;1.40;1.30;;;16.10;67.40;17.20;99248.00;;;;5009554;28;20249;-46
2023/01/15 00:56:07;;;;;;;1.60;1.00;;;16.20;67.60;17.10;99237.00;;;;5009433;28;20253;-46
2023/01/15 00:58:33;;;;;;;1.07;0.97;;;16.10;67.30;17.20;99232.00;;;;5009970;28;20633;-46
2023/01/15 01:00:59;;;;;;;1.30;1.20;;;16.10;67.30;17.10;99231.00;;;;5009640;28;20210;-47
2023/01/15 01:03:26;;;;;;;1.30;1.20;;;16.10;67.40;17.10;99238.00;;;;5009474;28;20184;-46
2023/01/15 01:05:51;;;;;;;1.43;1.17;;;16.10;67.40;17.10;99245.00;;;;5009830;28;20195;-45
2023/01/15 01:08:17;;;;;;;0.70;0.70;;;16.10;67.40;17.10;99238.00;;;;5010037;28;20682;-45
2023/01/15 01:10:43;;;;;;;0.93;0.93;;;16.10;67.40;17.10;99239.00;;;;5009403;28;20191;-46
2023/01/15 01:13:09;;;;;;;0.83;0.83;;;16.00;67.30;17.10;99237.00;;;;5009160;28;20214;-46
2023/01/15 01:15:36;;;;;;;1.00;1.00;;;16.00;67.20;17.10;99224.00;;;;5009094;28;20245;-45
2023/01/15 01:18:02;;;;;;;1.30;1.20;;;16.00;67.30;17.10;99202.00;;;;5008446;28;20195;-46
2023/01/15 01:20:28;;;;;;;0.97;0.97;;;16.00;67.40;17.00;99199.00;;;;5009627;28;20203;-45
2023/01/15 01:22:54;;;;;;;0.93;0.80;;;16.00;67.80;17.00;99217.00;;;;5009409;28;20610;-46
2023/01/15 01:25:20;;;;;;;1.23;1.13;;;16.00;67.80;17.00;99221.00;;;;5007724;28;20543;-45
2023/01/15 01:27:45;;;;;;;1.03;0.93;;;16.00;67.80;17.00;99223.00;;;;5008867;28;20273;-46
2023/01/15 01:30:12;;;;;;;0.97;0.90;;;16.00;67.80;17.00;99214.00;;;;5009134;28;20181;-45
2023/01/15 01:32:37;;;;;;;0.90;0.90;;;16.00;67.80;17.00;99212.00;;;;5008673;28;20186;-45
2023/01/15 01:35:04;;;;;;;1.20;1.10;;;16.00;67.80;17.00;99205.00;;;;5008938;28;20263;-46
2023/01/15 01:37:29;;;;;;;1.10;1.00;;;16.00;67.80;17.00;99200.00;;;;5008633;28;20211;-46
2023/01/15 01:39:55;;;;;;;1.30;1.20;;;16.00;67.80;17.00;99223.00;;;;5008958;28;20179;-46
2023/01/15 01:42:21;;;;;;;1.30;1.20;;;16.00;67.80;17.00;99241.00;;;;5012648;28;20178;-46
2023/01/15 01:44:47;;;;;;;1.20;1.00;;;16.00;67.80;17.00;99226.00;;;;5013091;28;20290;-46
2023/01/15 01:47:23;;;;;;;1.20;1.20;;;16.00;67.80;17.00;99226.00;;;;5013210;28;20206;-45
2023/01/15 01:49:56;;;;;;;1.20;1.10;;;15.90;67.70;16.90;99244.00;;;;5012688;28;20171;-45
2023/01/15 01:52:37;;;;;;;1.27;1.13;;;15.90;67.60;16.90;99236.00;;;;4995421;28;20178;-45
2023/01/15 01:55:03;;;;;;;0.90;0.90;;;15.90;67.60;16.90;99224.00;;;;4995916;28;20636;-46
2023/01/15 01:57:28;;;;;;;0.97;0.90;;;15.90;67.50;16.90;99232.00;;;;4995309;28;20216;-46
2023/01/15 01:59:54;;;;;;;2.03;1.30;;;15.90;67.40;16.90;99229.00;;;;5012453;28;20176;-46
2023/01/15 02:02:20;;;;;;;0.90;0.90;;;15.90;67.40;16.90;99231.00;;;;4995392;28;20172;-46
2023/01/15 02:04:46;;;;;;;1.50;1.10;;;15.90;67.30;16.90;99236.00;;;;5012622;28;20200;-46
2023/01/15 02:07:12;;;;;;;1.17;1.00;;;15.90;67.20;16.90;99245.00;;;;5012504;28;20208;-46
2023/01/15 02:09:38;;;;;;;1.23;1.13;;;15.90;67.20;16.80;99252.00;;;;5012567;28;20215;-45
2023/01/15 02:12:18;;;;;;;1.30;1.20;;;15.90;67.20;16.80;99257.00;;;;5011481;28;20176;-45
2023/01/15 02:15:02;;;;;;;1.37;1.10;;;15.90;67.10;16.80;99238.00;;;;5011140;28;20176;-46
2023/01/15 02:18:06;;;;;;;1.27;1.17;;;15.80;67.00;16.80;99220.00;;;;5010925;28;20195;-46
2023/01/15 02:21:04;;;;;;;1.03;1.00;;;15.80;67.00;16.80;99216.00;;;;4997764;28;20553;-45
2023/01/15 02:24:06;;;;;;;1.20;1.10;;;15.80;66.90;16.80;99218.00;;;;4998255;28;20196;-46
2023/01/15 02:27:24;;;;;;;1.23;1.00;;;15.80;67.00;16.70;99230.00;;;;5011464;28;20207;-46
2023/01/15 02:30:33;;;;;;;1.30;0.90;;;15.80;66.90;16.70;99225.00;;;;5004945;28;20235;-46
2023/01/15 02:33:05;;;;;;;1.37;1.10;;;15.80;66.90;16.70;99229.00;;;;4954502;28;20185;-47
2023/01/15 02:35:39;;;;;;;1.20;1.10;;;15.80;66.80;16.70;99222.00;;;;4965909;28;20165;-50
2023/01/15 02:38:07;;;;;;;1.10;1.00;;;15.80;66.90;16.70;99212.00;;;;4984608;28;20200;-45
2023/01/15 02:40:33;;;;;;;0.97;0.97;;;15.80;66.90;16.70;99217.00;;;;5009265;28;20661;-45
2023/01/15 02:42:58;;;;;;;0.90;0.90;;;15.70;66.70;16.70;99215.00;;;;4996669;28;20172;-45
2023/01/15 02:45:30;;;;;;;1.37;1.10;;;15.70;67.50;16.60;99207.00;;;;5015581;28;20187;-46
2023/01/15 02:47:59;;;;;;;1.13;1.03;;;15.70;66.70;16.60;99193.00;;;;4996502;28;20191;-47
2023/01/15 02:50:30;;;;;;;0.90;0.90;;;15.70;66.70;16.60;99197.00;;;;4994735;28;20175;-47
2023/01/15 02:53:00;;;;;;;1.20;1.10;;;15.70;66.60;16.60;99195.00;;;;4994461;28;20156;-47
2023/01/15 02:55:31;;;;;;;0.93;0.93;;;15.70;66.70;16.60;99203.00;;;;4994335;28;20744;-47
2023/01/15 02:57:59;;;;;;;1.07;0.97;;;15.70;66.60;16.60;99214.00;;;;4994420;28;20563;-46
2023/01/15 03:00:25;;;;;;;1.37;1.20;;;15.70;66.60;16.60;99215.00;;;;4994073;28;20183;-47
2023/01/15 03:02:57;;;;;;;1.00;1.00;;;15.70;66.60;16.60;99207.00;;;;5009470;28;20172;-46
2023/01/15 03:05:27;;;;;;;1.17;1.07;;;15.60;66.50;16.60;99199.00;;;;4994702;28;20191;-47
2023/01/15 03:07:58;;;;;;;1.10;1.00;;;15.70;66.60;16.60;99184.00;;;;4994276;28;20623;-46
2023/01/15 03:11:07;;;;;;;1.13;1.03;;;15.60;66.50;16.60;99208.00;;;;5010017;28;20164;-47
2023/01/15 03:13:41;;;;;;;0.93;0.93;;;15.60;66.40;16.50;99206.00;;;;5009334;28;20278;-47
2023/01/15 03:16:34;;;;;;;1.30;1.20;;;15.60;66.60;16.50;99213.00;;;;5011432;28;20171;-46
2023/01/15 03:19:18;;;;;;;1.13;0.83;;;15.60;66.60;16.50;99207.00;;;;5011307;28;20162;-46
2023/01/15 03:22:07;;;;;;;0.80;0.80;;;15.60;66.70;16.50;99196.00;;;;5010398;28;20163;-46
2023/01/15 03:24:56;;;;;;;0.97;0.90;;;15.60;66.80;16.50;99200.00;;;;5010060;28;20238;-45
2023/01/15 03:27:22;;;;;;;1.10;1.00;;;15.60;66.70;16.50;99205.00;;;;5009573;28;20266;-47
2023/01/15 03:29:52;;;;;;;1.10;1.00;;;15.60;66.70;16.50;99175.00;;;;4993301;28;20254;-46
2023/01/15 03:32:19;;;;;;;1.57;0.80;;;15.60;66.80;16.50;99186.00;;;;4992595;28;20176;-46
2023/01/15 03:34:53;;;;;;;0.90;0.90;;;15.50;66.60;16.40;99173.00;;;;5010976;28;20266;-46
2023/01/15 03:37:20;;;;;;;1.50;1.30;;;15.50;66.60;16.40;99165.00;;;;4994615;28;20948;-46
2023/01/15 03:39:45;;;;;;;0.97;0.87;;;15.60;66.70;16.40;99171.00;;;;4987579;28;20275;-49
2023/01/15 03:43:39;;;;;;;0.80;0.80;;;15.50;66.60;16.40;99162.00;;;;5010806;28;20176;-45
2023/01/15 03:45:41;;;;;;;2.77;1.37;;;15.50;66.60;16.40;99167.00;;;;5009214;28;20211;-47
2023/01/15 03:48:30;;;;;;;0.83;0.83;;;15.50;66.50;16.40;99160.00;;;;4993206;28;20730;-45
2023/01/15 03:51:19;;;;;;;0.93;0.90;;;15.50;66.50;16.40;99170.00;;;;5009405;28;20637;-46
2023/01/15 03:53:50;;;;;;;0.87;0.83;;;15.40;66.40;16.30;99176.00;;;;5009443;28;20168;-46
2023/01/15 03:56:42;;;;;;;0.87;0.87;;;15.40;66.40;16.30;99160.00;;;;4994236;28;20196;-46
2023/01/15 03:59:22;;;;;;;1.00;0.87;;;15.40;66.40;16.30;99167.00;;;;4999303;28;20206;-46
2023/01/15 04:01:47;;;;;;;1.10;1.00;;;15.40;66.40;16.30;99169.00;;;;4997469;28;20164;-46
2023/01/15 04:04:13;;;;;;;1.27;1.10;;;15.40;66.40;16.30;99176.00;;;;5009155;28;20210;-47
2023/01/15 04:06:39;;;;;;;1.07;1.00;;;15.40;66.40;16.30;99164.00;;;;5009701;28;20614;-45
2023/01/15 04:09:07;;;;;;;1.10;1.00;;;15.40;66.40;16.30;99179.00;;;;4992783;28;20179;-46
2023/01/15 04:11:32;;;;;;;1.00;0.90;;;15.40;66.40;16.30;99184.00;;;;4992286;28;20555;-46
2023/01/15 04:13:58;;;;;;;1.23;0.90;;;15.40;66.40;16.30;99182.00;;;;5010440;28;20207;-46
2023/01/15 04:16:27;;;;;;;1.90;1.20;;;15.40;66.40;16.30;99174.00;;;;5008835;28;20203;-46
2023/01/15 04:18:52;;;;;;;0.97;0.93;;;15.40;66.40;16.30;99170.00;;;;5009850;28;20171;-47
2023/01/15 04:21:18;;;;;;;0.70;0.70;;;15.40;66.40;16.30;99180.00;;;;5008335;28;20195;-45
2023/01/15 04:23:45;;;;;;;1.20;1.10;;;15.30;66.30;16.20;99184.00;;;;5009853;28;20186;-46
2023/01/15 04:26:11;;;;;;;1.00;1.00;;;15.40;66.40;16.20;99188.00;;;;5009472;28;20549;-48
2023/01/15 04:28:37;;;;;;;1.17;1.10;;;15.40;66.40;16.20;99185.00;;;;5009823;28;20186;-46
2023/01/15 04:31:02;;;;;;;2.90;1.10;;;15.30;66.90;16.20;99183.00;;;;5009749;28;20203;-46
2023/01/15 04:33:28;;;;;;;3.10;1.07;;;15.30;67.00;16.20;99191.00;;;;5024388;28;20233;-46
2023/01/15 04:35:54;;;;;;;1.13;0.80;;;15.40;66.80;16.20;99182.00;;;;5029507;28;20206;-46
2023/01/15 04:38:19;;;;;;;0.97;0.93;;;15.30;66.50;16.20;99187.00;;;;5029631;28;20182;-46
2023/01/15 04:46:13;;;;;;;1.93;1.13;;;15.30;66.50;16.20;99180.00;;;;5029716;28;20229;-45
2023/01/15 04:48:39;;;;;;;2.10;1.20;;;15.30;66.40;16.20;99191.00;;;;5030539;28;20553;-46
2023/01/15 04:51:05;;;;;;;1.63;0.83;;;15.30;66.40;16.20;99195.00;;;;5029800;28;20709;-46
2023/01/15 04:53:31;;;;;;;1.20;0.90;;;15.30;66.40;16.20;99183.00;;;;5011883;28;20182;-46
2023/01/15 04:56:01;;;;;;;1.30;1.10;;;15.30;66.40;16.10;99191.00;;;;5028140;28;20174;-48
2023/01/15 04:58:27;;;;;;;3.03;1.27;;;15.20;66.30;16.10;99187.00;;;;5029563;28;20182;-46
2023/01/15 05:00:52;;;;;;;2.97;0.93;;;15.30;66.40;16.10;99183.00;;;;5029374;28;20186;-46
2023/01/15 05:03:18;;;;;;;3.50;1.10;;;15.20;66.30;16.10;99181.00;;;;5028718;28;20205;-46
2023/01/15 05:05:44;;;;;;;1.53;0.80;;;15.20;66.20;16.10;99194.00;;;;5029193;28;20813;-46
2023/01/15 05:08:09;;;;;;;0.80;0.80;;;15.30;66.40;16.10;99191.00;;;;5029378;28;20195;-46
2023/01/15 05:10:35;;;;;;;1.97;1.07;;;15.20;66.30;16.10;99191.00;;;;5028992;28;20185;-46
2023/01/15 05:13:01;;;;;;;2.37;1.20;;;15.20;66.20;16.10;99179.00;;;;5029202;28;20171;-45
2023/01/15 05:15:26;;;;;;;1.90;1.30;;;15.20;66.20;16.10;99179.00;;;;5030125;28;20193;-46
2023/01/15 05:17:52;;;;;;;1.00;0.67;;;15.20;66.30;16.10;99196.00;;;;5033119;28;20198;-46
2023/01/15 05:20:18;;;;;;;1.30;1.00;;;15.20;66.30;16.10;99198.00;;;;5033420;28;20197;-46
2023/01/15 05:22:44;;;;;;;1.30;0.93;;;15.20;66.30;16.10;99183.00;;;;5032183;28;20174;-47
2023/01/15 05:25:09;;;;;;;1.23;1.00;;;15.20;66.40;16.10;99198.00;;;;5028111;28;20211;-45
2023/01/15 05:27:35;;;;;;;1.70;1.00;;;15.20;66.30;16.10;99193.00;;;;5036212;28;20191;-47
2023/01/15 05:30:01;;;;;;;2.37;1.27;;;15.10;66.20;16.10;99199.00;;;;5033723;28;20163;-46
2023/01/15 05:32:26;;;;;;;1.93;1.10;;;15.10;66.20;16.00;99200.00;;;;5032336;28;20175;-46
2023/01/15 05:34:52;;;;;;;3.07;1.20;;;15.10;66.20;16.00;99201.00;;;;5032784;28;20167;-45
2023/01/15 05:37:18;;;;;;;1.53;1.07;;;15.10;66.20;16.00;99214.00;;;;5032124;28;20666;-47
2023/01/15 05:39:43;;;;;;;1.03;0.93;;;15.10;66.20;16.00;99186.00;;;;5032519;28;20175;-47
2023/01/15 05:42:09;;;;;;;1.43;1.27;;;15.10;66.20;16.00;99190.00;;;;5032173;28;20182;-46
2023/01/15 05:44:35;;;;;;;4.10;1.40;;;15.10;66.10;16.00;99195.00;;;;5032108;28;20195;-46
2023/01/15 05:47:06;;;;;;;3.00;1.50;;;15.10;66.10;16.00;99194.00;;;;5032818;28;20221;-47
2023/01/15 05:49:32;;;;;;;6.50;1.80;;;15.10;66.20;16.00;99208.00;;;;5033039;28;20191;-46
2023/01/15 05:51:59;;;;;;;2.13;1.63;;;15.10;66.20;16.00;99200.00;;;;5047556;28;20195;-46
2023/01/15 05:54:30;;;;;;;2.97;1.30;;;15.10;66.20;16.00;99198.00;;;;5031913;28;20170;-47
2023/01/15 05:56:56;;;;;;;4.63;1.63;;;15.00;66.10;16.00;99197.00;;;;5029617;28;20191;-47
2023/01/15 05:59:24;;;;;;;5.47;1.87;;;15.00;66.20;16.00;99192.00;;;;5014418;28;20163;-46
2023/01/15 06:01:50;;;;;;;3.33;1.50;;;15.00;67.00;15.90;99199.00;;;;5047991;28;20179;-46
2023/01/15 06:04:19;;;;;;;4.40;1.70;;;15.00;66.10;15.90;99195.00;;;;5032677;28;20179;-46
2023/01/15 06:06:45;;;;;;;1.73;1.40;;;15.10;66.30;15.90;99205.00;;;;5032258;28;20194;-47
2023/01/15 06:09:11;;;;;;;4.77;1.73;;;15.00;66.30;15.90;99209.00;;;;5045114;28;20254;-46
2023/01/15 06:11:37;;;;;;;3.37;1.70;;;15.10;66.40;15.90;99214.00;;;;5021993;28;20178;-46
2023/01/15 06:14:03;;;;;;;3.73;1.43;;;15.00;66.30;15.90;99211.00;;;;5032168;28;20203;-46
2023/01/15 06:16:28;;;;;;;2.07;1.20;;;15.00;66.30;15.90;99209.00;;;;5032123;28;20604;-46
2023/01/15 06:18:54;;;;;;;4.33;1.60;;;15.00;66.30;15.90;99222.00;;;;5032434;28;20202;-47
2023/01/15 06:21:20;;;;;;;3.60;1.40;;;14.90;66.30;15.90;99218.00;;;;5031555;28;20274;-46
2023/01/15 06:23:46;;;;;;;3.57;1.53;;;14.90;66.50;15.90;99222.00;;;;5038915;28;20183;-46
2023/01/15 06:26:16;;;;;;;4.23;1.80;;;14.90;66.60;15.90;99230.00;;;;5051930;28;20247;-47
2023/01/15 06:28:42;;;;;;;4.90;1.50;;;14.90;66.60;15.90;99229.00;;;;5051074;28;20151;-46
2023/01/15 06:31:10;;;;;;;3.73;1.50;;;14.90;66.60;15.80;99238.00;;;;5038192;28;20167;-46
2023/01/15 06:33:36;;;;;;;5.63;1.70;;;14.90;66.60;15.80;99232.00;;;;5032523;28;20176;-46
2023/01/15 06:36:07;;;;;;;2.47;1.40;;;14.90;66.40;15.80;99232.00;;;;5031779;28;20728;-47
2023/01/15 06:38:32;;;;;;;1.93;1.40;;;14.90;66.50;15.80;99230.00;;;;5031597;28;20168;-46
2023/01/15 06:41:00;;;;;;;3.43;1.40;;;14.90;66.40;15.80;99220.00;;;;5034478;28;20790;-46
2023/01/15 06:48:54;;;;;;;1.73;1.40;;;14.90;66.50;15.70;99235.00;;;;5040065;28;20217;-45
2023/01/15 06:51:20;;;;;;;1.70;1.03;;;14.90;66.40;15.70;99242.00;;;;5038519;28;20196;-46
2023/01/15 06:53:46;;;;;;;1.87;1.20;;;14.80;66.40;15.70;99225.00;;;;5034822;28;20250;-45
2023/01/15 06:56:13;;;;;;;3.07;1.50;;;14.80;66.40;15.70;99244.00;;;;5031524;28;20194;-45
2023/01/15 06:58:40;;;;;;;2.27;1.40;;;14.90;66.40;15.70;99245.00;;;;5031584;28;20356;-45
2023/01/15 07:01:10;;;;;;;2.20;1.40;;;14.90;66.50;15.70;99231.00;;;;5031836;28;20198;-46
2023/01/15 07:03:36;;;;;;;2.60;1.07;;;14.80;66.40;15.70;99249.00;;;;5031379;28;20164;-46
2023/01/15 07:06:10;;;;;;;2.47;1.33;;;14.80;66.30;15.70;99226.00;;;;5031199;28;20284;-46
2023/01/15 07:08:36;;;;;;;2.23;1.40;;;14.80;66.40;15.70;99258.00;;;;5030104;28;20221;-46
2023/01/15 07:11:04;;;;;;;2.97;1.30;;;14.80;66.40;15.70;99245.00;;;;5031254;28;20243;-46
2023/01/15 07:13:30;;;;;;;1.80;1.47;;;14.80;66.40;15.70;99247.00;;;;5030737;28;20193;-46
2023/01/15 07:15:58;;;;;;;1.90;1.33;;;14.80;66.40;15.70;99246.00;;;;5030915;28;20751;-47
2023/01/15 07:18:26;;;;;;;2.10;1.27;;;14.80;66.50;15.70;99257.00;;;;5031234;28;20671;-46
2023/01/15 07:20:56;;;;;;;1.77;1.60;;;14.80;66.50;15.70;99248.00;;;;5031410;28;20198;-46
2023/01/15 07:23:25;;;;;;;1.67;1.13;;;14.70;66.40;15.70;99244.00;;;;5028814;28;20659;-46
2023/01/15 07:25:52;;;;;;;1.33;1.13;;;14.80;66.50;15.60;99251.00;;;;5030473;28;20217;-46
2023/01/15 07:28:18;;;;;;;1.23;1.13;;;14.80;66.40;15.60;99258.00;;;;5030966;28;20954;-47
2023/01/15 07:30:44;;;;;;;3.77;1.37;;;14.80;66.50;15.60;99255.00;;;;5030981;28;20182;-46
2023/01/15 07:33:11;;;;;;;2.27;1.37;;;14.70;66.40;15.60;99256.00;;;;5030418;28;20171;-46
2023/01/15 07:35:37;;;;;;;2.30;1.20;;;14.70;66.40;15.60;99273.00;;;;5030609;28;20175;-46
2023/01/15 07:38:03;;;;;;;2.17;1.03;;;14.70;67.20;15.60;99261.00;;;;5030359;28;20202;-50
2023/01/15 07:40:28;;;;;;;1.40;1.20;;;14.70;66.40;15.60;99268.00;;;;5031815;28;20632;-46
2023/01/15 07:51:07;;;;;;;2.00;1.50;;;14.70;66.40;15.50;99283.00;;;;5029999;28;20221;-46
2023/01/15 07:53:33;;;;;;;1.37;1.20;;;14.60;66.30;15.50;99278.00;;;;5030139;28;20167;-46
2023/01/15 07:55:59;;;;;;;1.10;1.00;;;14.60;66.30;15.50;99283.00;;;;5028697;28;20600;-49
2023/01/15 07:58:25;;;;;;;1.40;1.17;;;14.70;66.40;15.50;99287.00;;;;5030463;28;20293;-46
2023/01/15 08:00:50;;;;;;;1.60;1.10;;;14.70;66.40;15.50;99283.00;;;;5031009;28;20535;-46
2023/01/15 08:03:16;;;;;;;1.47;1.27;;;14.60;66.30;15.50;99297.00;;;;5028606;28;20174;-46
2023/01/15 08:05:42;;;;;;;1.13;1.00;;;14.60;66.30;15.50;99299.00;;;;5029899;28;20202;-46
2023/01/15 08:08:14;;;;;;;2.00;1.03;;;14.60;66.30;15.50;99304.00;;;;5030119;28;20202;-46
2023/01/15 08:15:11;;;;;;;1.07;0.97;;;14.60;66.30;15.50;99313.00;;;;5039898;28;20175;-46
2023/01/15 08:16:10;;;;;;;1.20;1.10;;;14.60;66.30;15.50;99308.00;;;;5029719;28;20241;-47
2023/01/15 08:18:36;;;;;;;1.73;1.30;;;14.60;66.30;15.40;99316.00;;;;5029550;28;20758;-45
2023/01/15 08:21:02;;;;;;;1.47;1.20;;;14.60;66.30;15.50;99308.00;;;;5042385;28;20171;-45
2023/01/15 08:23:28;;;;;;;1.13;1.03;;;14.60;66.30;15.40;99323.00;;;;5031477;28;20646;-46
2023/01/15 08:25:53;;;;;;;1.70;1.30;;;14.50;66.20;15.40;99322.00;;;;5029723;28;20870;-46
2023/01/15 08:28:20;;;;;;;1.17;1.00;;;14.60;66.30;15.40;99333.00;;;;5029768;28;20306;-45
2023/01/15 08:30:46;;;;;;;1.07;0.93;;;14.50;66.20;15.40;99334.00;;;;5029916;28;20250;-45
2023/01/15 08:33:12;;;;;;;2.07;1.50;;;14.50;66.20;15.40;99335.00;;;;5029158;28;20228;-46
2023/01/15 08:35:38;;;;;;;2.30;1.20;;;14.60;66.30;15.40;99342.00;;;;5029567;28;20170;-46
2023/01/15 08:38:06;;;;;;;1.30;1.07;;;14.50;66.20;15.40;99344.00;;;;5029471;28;20703;-46
2023/01/15 08:40:35;;;;;;;1.60;1.23;;;14.50;66.20;15.40;99348.00;;;;5029900;28;20183;-46
2023/01/15 08:43:01;;;;;;;0.87;0.83;;;14.50;66.20;15.40;99352.00;;;;5029229;28;20178;-46
2023/01/15 08:45:26;;;;;;;1.10;1.00;;;14.50;66.20;15.40;99350.00;;;;5029364;28;20199;-46
2023/01/15 08:47:59;;;;;;;0.93;0.87;;;14.50;66.20;15.40;99370.00;;;;5027979;28;20305;-46
2023/01/15 08:50:24;;;;;;;1.10;1.00;;;14.50;66.20;15.40;99364.00;;;;5029625;28;20227;-45
2023/01/15 08:52:50;;;;;;;1.10;1.00;;;14.50;66.20;15.40;99354.00;;;;5029224;28;20198;-46
2023/01/15 08:55:16;;;;;;;0.97;0.73;;;14.50;66.20;15.30;99361.00;;;;5030275;28;20651;-45
2023/01/15 08:57:43;;;;;;;0.80;0.80;;;14.50;66.20;15.30;99372.00;;;;5029722;28;20206;-45
2023/01/15 09:00:10;;;;;;;0.90;0.67;;;14.40;66.10;15.30;99367.00;;;;5030302;28;20182;-46
2023/01/15 09:02:35;;;;;;;0.83;0.73;;;14.40;66.10;15.30;99379.00;;;;5029230;28;20178;-45
2023/01/15 09:05:01;;;;;;;1.20;1.07;;;14.40;66.20;15.30;99373.00;;;;5028177;28;20211;-45
2023/01/15 09:07:27;;;;;;;1.47;1.10;;;14.40;66.10;15.30;99366.00;;;;5029178;28;20187;-45
2023/01/15 09:09:53;;;;;;;1.10;0.97;;;14.40;66.10;15.30;99381.00;;;;5029471;28;20175;-47
2023/01/15 09:12:18;;;;;;;1.13;0.90;;;14.40;66.10;15.30;99374.00;;;;5028508;28;20183;-46
2023/01/15 09:14:44;;;;;;;1.17;0.97;;;14.40;66.10;15.30;99376.00;;;;5028221;28;20178;-46
2023/01/15 09:17:10;;;;;;;1.27;0.80;;;14.40;66.10;15.30;99368.00;;;;5028209;28;20205;-50
2023/01/15 09:19:35;;;;;;;1.13;0.90;;;14.40;66.10;15.30;99364.00;;;;5024710;28;20194;-47
2023/01/15 09:22:01;;;;;;;1.10;1.00;;;14.40;66.20;15.30;99368.00;;;;5026412;28;20186;-46
2023/01/15 09:24:27;;;;;;;0.67;0.60;;;14.40;66.20;15.30;99367.00;;;;5027984;28;20187;-45
2023/01/15 09:26:53;;;;;;;0.90;0.90;;;14.40;66.10;15.30;99365.00;;;;5029882;28;20647;-47
2023/01/15 09:29:18;;;;;;;1.10;1.00;;;14.40;66.10;15.30;99367.00;;;;5029025;28;20537;-46
2023/01/15 09:31:44;;;;;;;0.70;0.70;;;14.40;66.20;15.20;99360.00;;;;5036501;28;20178;-45
2023/01/15 09:34:10;;;;;;;0.97;0.97;;;14.30;66.00;15.20;99362.00;;;;5047101;28;20590;-47
2023/01/15 09:36:36;;;;;;;0.87;0.87;;;14.40;66.20;15.20;99353.00;;;;5044360;28;20225;-45
2023/01/15 09:39:03;;;;;;;1.67;1.07;;;14.40;66.10;15.20;99366.00;;;;5032708;28;20232;-46
2023/01/15 09:42:09;;;;;;;1.33;0.80;;;14.30;66.00;15.20;99363.00;;;;5029595;28;20201;-47
2023/01/15 09:45:19;;;;;;;1.43;1.00;;;14.30;66.00;15.20;99374.00;;;;5028297;28;20294;-46
2023/01/15 09:48:20;;;;;;;1.13;1.03;;;14.30;66.00;15.20;99366.00;;;;5036149;28;20286;-46
2023/01/15 09:51:22;;;;;;;1.33;0.97;;;14.30;66.00;15.20;99374.00;;;;5027656;28;20167;-46
2023/01/15 09:54:31;;;;;;;1.10;1.00;;;14.30;66.00;15.20;99370.00;;;;5029851;28;20554;-46
2023/01/15 09:56:57;;;;;;;0.80;0.80;;;14.30;66.00;15.10;99370.00;;;;5028554;28;20243;-45
2023/01/15 09:59:35;;;;;;;1.47;1.20;;;14.30;66.00;15.10;99361.00;;;;5028697;28;20250;-46
2023/01/15 10:02:11;;;;;;;1.10;1.00;;;14.30;66.00;15.10;99368.00;;;;5029353;28;20175;-46
2023/01/15 10:04:41;;;;;;;0.90;0.90;;;14.30;66.00;15.10;99354.00;;;;5031730;28;20257;-46
2023/01/15 10:07:32;;;;;;;1.00;0.90;;;14.30;66.00;15.10;99352.00;;;;5032483;28;20206;-48
2023/01/15 10:10:10;;;;;;;1.17;1.07;;;14.30;66.10;15.10;99358.00;;;;5015162;28;20644;-46
2023/01/15 10:12:37;;;;;;;1.00;0.90;;;14.30;66.10;15.10;99337.00;;;;5032848;28;20625;-46
2023/01/15 10:15:12;;;;;;;1.57;0.83;;;14.30;66.10;15.10;99346.00;;;;5032338;28;20191;-46
2023/01/15 10:17:46;;;;;;;1.27;1.17;;;14.30;66.10;15.10;99352.00;;;;5032686;28;20699;-45
2023/01/15 10:20:17;;;;;;;1.20;0.93;;;14.20;66.00;15.10;99345.00;;;;5031217;28;20644;-45
2023/01/15 10:23:12;;;;;;;0.93;0.87;;;14.30;66.20;15.10;99359.00;;;;5030948;28;20171;-47
2023/01/15 10:25:53;;;;;;;0.87;0.83;;;14.30;66.20;15.10;99373.00;;;;5031510;28;20218;-46
2023/01/15 10:28:24;;;;;;;3.80;1.23;;;14.30;66.10;15.10;99361.00;;;;5031127;28;20195;-47
2023/01/15 10:30:53;;;;;;;2.50;1.20;;;14.20;66.30;15.10;99372.00;;;;5031248;28;20171;-47
2023/01/15 10:33:52;;;;;;;2.07;1.23;;;14.20;67.00;15.10;99353.00;;;;5030733;28;20179;-46
2023/01/15 10:36:37;;;;;;;3.90;0.97;;;14.20;67.50;15.10;99382.00;;;;5031094;28;20202;-46
2023/01/15 10:39:24;;;;;;;4.50;1.10;;;14.30;67.90;15.10;99388.00;;;;5031106;28;20163;-46
2023/01/15 10:42:15;;;;;;;1.67;1.07;;;14.30;67.90;15.10;99390.00;;;;5030049;28;20159;-46
2023/01/15 10:45:14;;;;;;;3.70;1.00;;;14.40;67.90;15.20;99392.00;;;;5031027;28;20206;-46
2023/01/15 10:47:40;;;;;;;2.33;1.27;;;14.40;67.80;15.20;99400.00;;;;5030556;28;20202;-46
2023/01/15 10:50:20;;;;;;;3.83;1.33;;;14.50;67.80;15.30;99415.00;;;;5030618;28;20538;-46
2023/01/15 10:53:08;;;;;;;5.07;1.20;;;14.60;67.90;15.40;99408.00;;;;5031672;28;20171;-45
2023/01/15 10:55:56;;;;;;;1.83;1.10;;;14.70;67.80;15.40;99413.00;;;;5031119;28;20670;-48
2023/01/15 10:58:44;;;;;;;2.10;1.17;;;14.80;67.80;15.60;99402.00;;;;5040831;28;20643;-47
2023/01/15 11:01:17;;;;;;;3.37;1.30;;;14.90;67.80;15.60;99380.00;;;;4952724;28;20215;-46
2023/01/15 11:03:43;;;;;;;2.53;1.00;;;15.00;67.80;15.70;99404.00;;;;5042220;28;20179;-46
2023/01/15 11:06:18;;;;;;;4.97;1.30;;;15.10;67.90;15.80;99393.00;;;;5032574;28;20335;-46
2023/01/15 11:08:53;;;;;;;2.30;1.20;;;15.10;67.90;15.90;99383.00;;;;5034506;28;20178;-46
2023/01/15 11:19:38;;;;;;;2.57;1.10;;;15.50;68.20;16.30;99399.00;;;;5030826;28;20677;-45
2023/01/15 11:22:13;;;;;;;6.37;1.40;;;15.50;68.20;16.30;99401.00;;;;5021351;28;20744;-47
2023/01/15 11:24:51;;;;;;;3.77;1.43;;;15.60;68.40;16.40;99410.00;;;;5009704;28;20217;-46
2023/01/15 11:27:19;;;;;;;3.03;1.40;;;15.70;68.30;16.40;99417.00;;;;4994313;28;20567;-46
2023/01/15 11:29:50;;;;;;;4.70;1.40;;;15.70;68.20;16.50;99419.00;;;;4993904;28;20226;-46
2023/01/15 11:32:31;;;;;;;2.87;1.40;;;15.70;68.20;16.50;99411.00;;;;5008896;28;20160;-46
2023/01/15 11:34:59;;;;;;;3.67;1.20;;;15.80;68.20;16.60;99401.00;;;;5010942;28;20172;-46
2023/01/15 11:37:26;;;;;;;3.83;1.40;;;15.90;68.20;16.70;99419.00;;;;5010129;28;20645;-46
2023/01/15 11:39:59;;;;;;;2.63;1.27;;;15.90;68.10;16.70;99415.00;;;;5010642;28;20645;-46
2023/01/15 11:51:07;;;;;;;5.17;1.80;;;16.00;68.50;16.80;99395.00;;;;5028144;28;20646;-46
2023/01/15 11:53:47;;;;;;;3.23;1.73;;;16.00;68.70;16.80;99391.00;;;;5029355;28;20190;-46
2023/01/15 11:56:16;;;;;;;3.20;2.20;;;16.00;68.80;16.80;99394.00;;;;5029372;28;20167;-46